Time;durP1;ratioP1;P1;durP2;ratioP2;P2;SDS_P1;SDS_P2;PMS_P1;PMS_P2;Temp;Humidity;BMP_temperature;BMP_pressure;BME280_temperature;BME280_humidity;BME280_pressure;Samples;Min_cycle;Max_cycle;Signal;HPM_P1;HPM_P2
2022/09/11 09:44:54;;;;;;;6.63;4.85;;;19.80;66.50;;;;;;5033107;27;20386;-73
2022/09/11 09:47:19;;;;;;;7.50;5.28;;;20.00;67.50;;;;;;5024240;28;20151;-73
2022/09/11 09:49:45;;;;;;;6.45;4.68;;;20.30;68.00;;;;;;5047164;28;20071;-72
2022/09/11 09:52:16;;;;;;;6.30;4.30;;;20.50;68.20;;;;;;5041441;28;20037;-73
2022/09/11 09:54:41;;;;;;;8.05;5.43;;;20.80;68.20;;;;;;5048328;28;20159;-72
2022/09/11 09:57:09;;;;;;;6.97;5.05;;;20.90;68.00;;;;;;5051117;28;20565;-71
2022/09/11 10:00:04;;;;;;;6.80;5.25;;;21.00;67.70;;;;;;5045716;28;20042;-72
2022/09/11 10:02:35;;;;;;;4.63;4.03;;;21.10;67.30;;;;;;5041440;28;20042;-73
2022/09/11 10:05:24;;;;;;;4.22;3.83;;;21.10;67.50;;;;;;5029608;28;20050;-72
2022/09/11 10:08:01;;;;;;;3.92;3.53;;;21.20;67.60;;;;;;5045470;28;20091;-72
2022/09/11 10:10:38;;;;;;;4.30;3.92;;;21.20;67.40;;;;;;5033384;28;20036;-73
2022/09/11 10:13:23;;;;;;;5.93;4.20;;;21.30;67.50;;;;;;5045201;28;20045;-74
2022/09/11 10:15:50;;;;;;;5.93;4.28;;;21.40;67.30;;;;;;5033695;28;20119;-73
2022/09/11 10:18:27;;;;;;;3.80;3.50;;;21.40;67.20;;;;;;5043206;28;20072;-75
2022/09/11 10:21:12;;;;;;;4.40;4.00;;;21.50;67.30;;;;;;5045311;28;20041;-74
2022/09/11 10:23:55;;;;;;;4.47;4.07;;;21.60;67.10;;;;;;5035226;28;20056;-73
2022/09/11 10:26:25;;;;;;;7.05;4.60;;;21.80;66.80;;;;;;5040939;28;20157;-76
2022/09/11 10:28:52;;;;;;;4.40;4.00;;;22.00;66.40;;;;;;5048218;28;20068;-74
2022/09/11 10:31:21;;;;;;;4.82;4.00;;;22.30;66.00;;;;;;5049135;28;20081;-74
2022/09/11 10:34:04;;;;;;;4.22;3.88;;;22.40;65.60;;;;;;5047876;28;20037;-75
2022/09/11 10:36:30;;;;;;;4.40;3.60;;;22.60;65.00;;;;;;5018419;28;20036;-75
2022/09/11 10:38:57;;;;;;;3.97;3.30;;;22.70;65.00;;;;;;5040147;28;20048;-75
2022/09/11 10:41:26;;;;;;;3.47;3.17;;;22.80;64.80;;;;;;5050795;28;20036;-74
2022/09/11 10:43:59;;;;;;;5.53;3.30;;;22.80;64.50;;;;;;5047687;28;20059;-74
2022/09/11 10:46:31;;;;;;;3.10;2.80;;;22.80;64.10;;;;;;5051141;28;20045;-74
2022/09/11 10:49:02;;;;;;;4.10;3.13;;;22.80;63.70;;;;;;5030289;28;20055;-75
2022/09/11 10:51:29;;;;;;;3.97;3.05;;;22.80;63.50;;;;;;5049814;28;21987;-75
2022/09/11 10:54:19;;;;;;;5.75;3.53;;;22.90;63.50;;;;;;5049456;28;20048;-76
2022/09/11 10:57:16;;;;;;;3.10;2.90;;;23.00;62.90;;;;;;5039184;28;20034;-76
2022/09/11 10:59:54;;;;;;;3.22;2.75;;;23.00;62.70;;;;;;5015284;28;20550;-75
2022/09/11 11:02:42;;;;;;;3.33;2.60;;;23.00;62.80;;;;;;5034917;28;20037;-73
2022/09/11 11:05:42;;;;;;;2.85;2.65;;;23.10;61.90;;;;;;4999947;28;20043;-74
2022/09/11 11:08:45;;;;;;;4.18;2.47;;;23.20;61.80;;;;;;4990694;28;20034;-74
2022/09/11 11:11:13;;;;;;;3.38;3.05;;;23.40;61.70;;;;;;4987584;28;20103;-75
2022/09/11 11:14:00;;;;;;;2.85;2.60;;;23.60;61.60;;;;;;5028873;28;20041;-75
2022/09/11 11:16:49;;;;;;;2.75;2.50;;;23.80;60.50;;;;;;5038307;28;20124;-75
2022/09/11 11:19:33;;;;;;;2.92;2.33;;;24.00;60.10;;;;;;5026926;28;20046;-74
2022/09/11 11:22:23;;;;;;;2.95;2.40;;;24.10;59.70;;;;;;5034827;28;20043;-75
2022/09/11 11:25:14;;;;;;;3.20;2.70;;;24.30;59.10;;;;;;5032284;28;20524;-75
2022/09/11 11:27:53;;;;;;;4.30;2.45;;;24.50;58.70;;;;;;5036758;28;20040;-75
2022/09/11 11:30:23;;;;;;;2.63;2.28;;;24.60;58.80;;;;;;5012068;28;20030;-74
2022/09/11 11:33:24;;;;;;;3.13;2.20;;;24.80;58.80;;;;;;4995267;28;20774;-80
2022/09/11 11:35:58;;;;;;;2.75;2.33;;;25.00;57.90;;;;;;4987789;28;20048;-80
2022/09/11 11:38:59;;;;;;;2.50;2.30;;;25.20;58.00;;;;;;5025726;28;20082;-79
2022/09/11 11:41:43;;;;;;;4.40;2.92;;;25.40;57.40;;;;;;5014922;28;20100;-79
2022/09/11 11:44:12;;;;;;;1.98;1.88;;;25.70;57.40;;;;;;5029508;28;20044;-79
2022/09/11 11:46:41;;;;;;;2.65;2.45;;;26.00;57.00;;;;;;5007200;28;20041;-79
2022/09/11 11:49:13;;;;;;;2.53;2.30;;;26.20;56.50;;;;;;5026438;28;20064;-79
2022/09/11 11:51:50;;;;;;;2.35;2.17;;;26.40;55.90;;;;;;5027891;28;21559;-78
2022/09/11 11:54:27;;;;;;;2.75;2.03;;;26.50;55.30;;;;;;5026380;28;20128;-79
2022/09/11 11:56:57;;;;;;;3.53;2.20;;;26.70;54.70;;;;;;5030001;28;20040;-81
2022/09/11 11:59:30;;;;;;;2.20;2.10;;;26.80;54.90;;;;;;5010081;28;20065;-79
2022/09/11 12:01:59;;;;;;;2.97;1.95;;;27.10;54.60;;;;;;5035725;28;20492;-79
2022/09/11 12:04:44;;;;;;;3.72;2.22;;;27.20;53.90;;;;;;5038143;28;20051;-80
2022/09/11 12:07:23;;;;;;;2.40;2.20;;;27.40;52.40;;;;;;5030801;28;20411;-81
2022/09/11 12:09:50;;;;;;;2.80;1.80;;;27.50;53.10;;;;;;5026413;28;20029;-79
2022/09/11 12:12:16;;;;;;;2.85;1.98;;;27.70;53.00;;;;;;5027522;28;20203;-80
2022/09/11 12:14:49;;;;;;;2.22;2.03;;;27.80;52.50;;;;;;5030004;28;20045;-78
2022/09/11 12:17:31;;;;;;;1.80;1.70;;;28.00;51.90;;;;;;5021012;28;20099;-80
2022/09/11 12:20:09;;;;;;;3.22;2.25;;;28.20;51.40;;;;;;5029667;28;20033;-80
2022/09/11 12:22:38;;;;;;;2.00;1.73;;;28.30;50.90;;;;;;5028831;28;20037;-79
2022/09/11 12:25:07;;;;;;;3.05;1.83;;;28.50;51.30;;;;;;5031159;28;20072;-79
2022/09/11 12:27:36;;;;;;;2.42;1.80;;;28.70;51.10;;;;;;5011960;28;20029;-79
2022/09/11 12:30:29;;;;;;;6.15;2.15;;;28.90;50.90;;;;;;5030446;28;20033;-80
2022/09/11 12:33:00;;;;;;;2.35;1.85;;;29.20;50.20;;;;;;5026585;28;20144;-80
2022/09/11 12:35:45;;;;;;;19.02;2.83;;;29.30;50.60;;;;;;5032715;28;20050;-78
2022/09/11 12:38:30;;;;;;;8.23;1.92;;;29.30;49.10;;;;;;5006104;28;20038;-79
2022/09/11 12:40:57;;;;;;;2.28;1.70;;;29.40;49.20;;;;;;5020276;28;20659;-78
2022/09/11 12:43:32;;;;;;;1.90;1.73;;;29.40;50.40;;;;;;5030421;28;20102;-79
2022/09/11 12:45:58;;;;;;;2.00;1.88;;;29.50;49.30;;;;;;5019473;28;20576;-79
2022/09/11 12:48:38;;;;;;;2.05;1.85;;;29.50;49.20;;;;;;5027330;28;20087;-79
2022/09/11 12:51:05;;;;;;;4.93;1.80;;;29.60;48.70;;;;;;5019250;28;20098;-77
2022/09/11 12:53:32;;;;;;;3.00;1.80;;;29.70;49.00;;;;;;5024236;28;20129;-77
2022/09/11 12:56:07;;;;;;;1.95;1.77;;;29.90;48.60;;;;;;5031458;28;20029;-77
2022/09/11 12:58:37;;;;;;;1.98;1.67;;;30.00;48.20;;;;;;5028214;28;20037;-78
2022/09/11 13:01:11;;;;;;;2.35;1.88;;;30.00;47.80;;;;;;5028122;28;20124;-77
2022/09/11 13:03:37;;;;;;;2.35;1.92;;;30.10;47.80;;;;;;5017261;28;20029;-77
2022/09/11 13:06:06;;;;;;;2.53;1.88;;;30.10;47.60;;;;;;5045168;28;20129;-78
2022/09/11 13:08:35;;;;;;;2.42;1.90;;;30.10;47.30;;;;;;5012036;28;20041;-77
2022/09/11 13:11:37;;;;;;;6.38;2.08;;;30.00;47.00;;;;;;5029625;28;20112;-78
2022/09/11 13:14:05;;;;;;;2.17;1.95;;;29.90;45.80;;;;;;5030450;28;20033;-77
2022/09/11 13:16:33;;;;;;;1.48;1.40;;;29.80;46.70;;;;;;5025294;28;20044;-78
2022/09/11 13:19:21;;;;;;;3.60;1.70;;;29.70;46.60;;;;;;5034498;28;20505;-77
2022/09/11 13:21:48;;;;;;;1.88;1.77;;;29.70;45.90;;;;;;5029080;28;20129;-78
2022/09/11 13:24:40;;;;;;;1.90;1.80;;;29.70;46.50;;;;;;5028579;28;20038;-78
2022/09/11 13:27:07;;;;;;;2.63;2.00;;;29.60;45.20;;;;;;5027514;28;20037;-77
2022/09/11 13:29:34;;;;;;;2.17;1.98;;;29.50;46.10;;;;;;5019466;28;20029;-77
2022/09/11 13:32:09;;;;;;;1.80;1.70;;;29.40;46.00;;;;;;5034621;28;20573;-77
2022/09/11 13:34:35;;;;;;;2.22;2.03;;;29.40;46.00;;;;;;5034927;28;21496;-77
2022/09/11 13:37:01;;;;;;;2.35;2.03;;;29.30;46.20;;;;;;5036201;28;20083;-77
2022/09/11 13:39:26;;;;;;;2.08;1.88;;;29.20;46.00;;;;;;5034936;28;20037;-78
2022/09/11 13:42:01;;;;;;;2.20;2.05;;;29.10;46.00;;;;;;5033550;28;20060;-77
2022/09/11 13:44:43;;;;;;;1.92;1.83;;;29.00;46.00;;;;;;5034203;28;20044;-77
2022/09/11 13:47:18;;;;;;;1.95;1.85;;;28.90;45.70;;;;;;5024642;28;20045;-78
2022/09/11 13:49:43;;;;;;;2.45;2.05;;;28.70;45.90;;;;;;5033895;28;20041;-77
2022/09/11 13:52:09;;;;;;;2.38;2.03;;;28.70;46.20;;;;;;5021287;28;20054;-77
2022/09/11 13:54:44;;;;;;;2.55;1.80;;;28.70;46.30;;;;;;4998874;28;20041;-77
2022/09/11 13:57:20;;;;;;;2.15;1.95;;;28.80;46.10;;;;;;5028083;28;20409;-78
2022/09/11 13:59:48;;;;;;;2.33;2.03;;;28.80;46.00;;;;;;5020074;28;20060;-77
2022/09/11 14:02:16;;;;;;;2.17;1.90;;;28.80;46.20;;;;;;5036505;28;20037;-77
2022/09/11 14:04:41;;;;;;;2.35;2.17;;;28.80;46.20;;;;;;5039884;28;20044;-76
2022/09/11 14:07:18;;;;;;;1.75;1.65;;;28.80;46.10;;;;;;5027957;28;20028;-79
2022/09/11 14:09:48;;;;;;;13.15;2.85;;;28.80;45.90;;;;;;5013701;28;20131;-78
2022/09/11 14:12:14;;;;;;;2.20;2.00;;;28.70;46.10;;;;;;5025849;28;20099;-77
2022/09/11 14:14:41;;;;;;;2.97;2.00;;;28.60;46.20;;;;;;5030181;28;20037;-79
2022/09/11 14:17:07;;;;;;;2.05;1.95;;;28.60;46.60;;;;;;5017244;28;20035;-79
2022/09/11 14:19:33;;;;;;;2.45;1.70;;;28.50;46.20;;;;;;5027939;28;20033;-78
2022/09/11 14:22:00;;;;;;;3.13;2.17;;;28.40;46.20;;;;;;5004787;28;20096;-78
2022/09/11 14:24:33;;;;;;;8.98;2.47;;;28.40;46.30;;;;;;5004780;28;20699;-78
2022/09/11 14:27:00;;;;;;;6.40;2.78;;;28.30;46.30;;;;;;5020444;28;20037;-78
2022/09/11 14:29:35;;;;;;;4.20;2.35;;;28.20;46.40;;;;;;5025169;28;20076;-78
2022/09/11 14:32:22;;;;;;;3.08;2.20;;;28.10;46.50;;;;;;5019915;28;20037;-77
2022/09/11 14:34:47;;;;;;;3.63;1.90;;;28.00;46.30;;;;;;5029582;28;20032;-79
2022/09/11 14:37:14;;;;;;;2.90;2.20;;;27.90;46.60;;;;;;5027249;28;20655;-79
2022/09/11 14:39:40;;;;;;;2.75;1.77;;;27.80;46.80;;;;;;5011743;28;20037;-78
2022/09/11 14:42:26;;;;;;;2.38;2.08;;;27.70;46.90;;;;;;5028632;28;20040;-78
2022/09/11 14:44:52;;;;;;;1.95;1.85;;;27.60;47.10;;;;;;5028610;28;20388;-79
2022/09/11 14:47:25;;;;;;;2.95;2.10;;;27.50;47.40;;;;;;5027739;28;20067;-78
2022/09/11 14:49:54;;;;;;;2.40;2.30;;;27.40;47.60;;;;;;5029062;28;20033;-78
2022/09/11 14:52:21;;;;;;;2.50;2.10;;;27.30;47.80;;;;;;5027790;28;20057;-78
2022/09/11 14:54:47;;;;;;;2.20;2.00;;;27.20;48.00;;;;;;5033337;28;20128;-77
2022/09/11 14:57:36;;;;;;;2.40;2.20;;;27.10;48.10;;;;;;5027331;28;20109;-77
2022/09/11 15:00:02;;;;;;;2.30;2.10;;;27.00;48.30;;;;;;5030369;28;20052;-78
2022/09/11 15:02:28;;;;;;;2.55;2.35;;;26.90;48.40;;;;;;5030822;28;20481;-77
2022/09/11 15:04:55;;;;;;;2.33;2.13;;;26.80;48.60;;;;;;5038054;28;20044;-77
2022/09/11 15:07:24;;;;;;;2.40;2.20;;;26.70;48.70;;;;;;5027087;28;20426;-77
2022/09/11 15:09:50;;;;;;;2.28;2.08;;;26.70;48.80;;;;;;5026801;28;20033;-78
2022/09/11 15:12:16;;;;;;;3.13;2.30;;;26.60;48.90;;;;;;5024609;28;20052;-78
2022/09/11 15:14:41;;;;;;;2.70;1.92;;;26.50;48.90;;;;;;5029622;28;20133;-77
2022/09/11 15:17:13;;;;;;;2.55;2.35;;;26.40;49.20;;;;;;5028710;28;20107;-78
2022/09/11 15:19:39;;;;;;;2.58;2.38;;;26.30;49.10;;;;;;5005689;28;22814;-78
2022/09/11 15:22:05;;;;;;;3.42;2.60;;;26.30;49.40;;;;;;5036144;28;20838;-78
2022/09/11 15:24:31;;;;;;;3.53;2.35;;;26.20;49.40;;;;;;5019135;28;21912;-77
2022/09/11 15:26:57;;;;;;;3.25;2.75;;;26.10;49.50;;;;;;5034909;28;20099;-78
2022/09/11 15:29:24;;;;;;;3.45;2.80;;;26.10;49.70;;;;;;5032778;28;20497;-77
2022/09/11 15:31:50;;;;;;;3.08;2.85;;;26.00;49.80;;;;;;5034836;28;20132;-78
2022/09/11 15:34:16;;;;;;;3.78;3.00;;;25.90;49.90;;;;;;5034683;28;20034;-78
2022/09/11 15:36:42;;;;;;;3.40;3.10;;;25.90;50.10;;;;;;5033834;28;20033;-76
2022/09/11 15:39:13;;;;;;;3.63;2.70;;;25.80;50.30;;;;;;5028866;28;20221;-77
2022/09/11 15:41:45;;;;;;;3.63;3.28;;;25.70;50.30;;;;;;5009186;28;20127;-78
2022/09/11 15:44:12;;;;;;;2.80;2.60;;;25.60;50.40;;;;;;5026075;28;20106;-79
2022/09/11 15:46:38;;;;;;;2.97;2.65;;;25.60;50.60;;;;;;5022185;28;20524;-77
2022/09/11 15:49:05;;;;;;;6.47;3.13;;;25.50;50.80;;;;;;5026498;28;20033;-78
2022/09/11 15:51:31;;;;;;;4.10;3.45;;;25.50;50.90;;;;;;5035331;28;20116;-78
2022/09/11 15:54:01;;;;;;;3.22;2.92;;;25.50;51.00;;;;;;5024456;28;20044;-77
2022/09/11 15:56:27;;;;;;;2.87;2.67;;;25.40;51.20;;;;;;5027974;28;20113;-78
2022/09/11 15:58:54;;;;;;;6.50;3.63;;;25.40;51.30;;;;;;5025075;28;20040;-78
2022/09/11 16:01:22;;;;;;;6.65;2.92;;;25.40;51.30;;;;;;5023198;28;20455;-77
2022/09/11 16:03:55;;;;;;;4.18;3.22;;;25.30;51.30;;;;;;5030396;28;20048;-78
2022/09/11 16:06:21;;;;;;;3.17;2.70;;;25.20;51.50;;;;;;5031169;28;20057;-79
2022/09/11 16:08:47;;;;;;;3.40;3.15;;;25.20;51.60;;;;;;5015199;28;20596;-78
2022/09/11 16:11:14;;;;;;;2.88;2.67;;;25.10;51.80;;;;;;5010198;28;20110;-77
2022/09/11 16:13:40;;;;;;;3.22;3.03;;;25.00;51.80;;;;;;5031904;28;20045;-77
2022/09/11 16:16:05;;;;;;;3.47;2.72;;;25.00;51.80;;;;;;5035171;28;20033;-77
2022/09/11 16:18:33;;;;;;;3.72;2.70;;;24.90;51.70;;;;;;5029048;28;20041;-77
2022/09/11 16:20:59;;;;;;;3.03;2.72;;;24.80;51.80;;;;;;5023188;28;20116;-77
2022/09/11 16:23:25;;;;;;;4.15;2.80;;;24.70;51.90;;;;;;5026056;28;20837;-77
2022/09/11 16:25:51;;;;;;;4.25;2.85;;;24.60;51.90;;;;;;5025741;28;20053;-77
2022/09/11 16:28:16;;;;;;;2.85;2.60;;;24.60;52.00;;;;;;5032089;28;20044;-77
2022/09/11 16:30:42;;;;;;;3.13;2.78;;;24.50;52.10;;;;;;5028187;28;20033;-76
2022/09/11 16:33:09;;;;;;;7.20;2.60;;;24.50;52.20;;;;;;5035334;28;20041;-77
2022/09/11 16:35:35;;;;;;;3.05;2.70;;;24.40;52.20;;;;;;5014799;28;20044;-77
2022/09/11 16:38:02;;;;;;;3.42;2.65;;;24.40;52.40;;;;;;5028736;28;20040;-77
2022/09/11 16:40:27;;;;;;;5.22;3.10;;;24.30;52.50;;;;;;5031959;28;20041;-78
2022/09/11 16:42:53;;;;;;;2.80;2.60;;;24.20;52.60;;;;;;5031323;28;20025;-77
2022/09/11 16:45:19;;;;;;;3.03;2.50;;;24.20;52.70;;;;;;5034735;28;20052;-80
2022/09/11 16:47:44;;;;;;;4.63;2.67;;;24.20;52.90;;;;;;5035250;28;20057;-77
2022/09/11 16:50:11;;;;;;;2.95;2.72;;;24.10;53.00;;;;;;5033164;28;20071;-76
2022/09/11 16:52:38;;;;;;;3.13;2.65;;;24.00;53.10;;;;;;5033430;28;20738;-77
2022/09/11 16:55:04;;;;;;;4.78;2.55;;;24.00;53.10;;;;;;5032929;28;20126;-77
2022/09/11 16:57:30;;;;;;;2.97;2.17;;;23.90;53.30;;;;;;5030613;28;20901;-76
2022/09/11 16:59:55;;;;;;;5.10;2.90;;;23.80;53.40;;;;;;5023780;28;20033;-76
2022/09/11 17:02:21;;;;;;;4.32;2.95;;;23.70;53.60;;;;;;5037740;28;20122;-76
2022/09/11 17:04:47;;;;;;;2.88;2.67;;;23.70;53.80;;;;;;5023553;28;20053;-77
2022/09/11 17:07:12;;;;;;;4.10;2.72;;;23.60;53.90;;;;;;5021693;28;20126;-76
2022/09/11 17:09:38;;;;;;;3.10;2.80;;;23.60;54.00;;;;;;5026109;28;20025;-77
2022/09/11 17:12:03;;;;;;;3.25;2.95;;;23.50;54.20;;;;;;5027053;28;20029;-77
2022/09/11 17:14:29;;;;;;;2.95;2.72;;;23.40;54.30;;;;;;5023149;28;20052;-78
2022/09/11 17:16:54;;;;;;;16.73;3.60;;;23.40;54.60;;;;;;5037314;28;20047;-76
2022/09/11 17:19:20;;;;;;;5.70;2.83;;;23.20;54.70;;;;;;5031192;28;20055;-76
2022/09/11 17:21:45;;;;;;;4.32;2.70;;;23.10;54.90;;;;;;5032744;28;20037;-77
2022/09/11 17:24:11;;;;;;;3.72;2.80;;;23.00;55.20;;;;;;5042378;28;20029;-78
2022/09/11 17:26:37;;;;;;;4.50;3.05;;;22.90;55.50;;;;;;5040749;28;20056;-76
2022/09/11 17:29:03;;;;;;;3.22;2.92;;;22.70;56.30;;;;;;5036576;28;20036;-76
2022/09/11 17:31:29;;;;;;;3.00;2.78;;;22.60;56.00;;;;;;5036790;28;20041;-75
2022/09/11 17:33:55;;;;;;;4.90;3.10;;;22.40;56.50;;;;;;5036728;28;20048;-76
2022/09/11 17:36:21;;;;;;;5.30;2.72;;;22.30;56.70;;;;;;5036029;28;20101;-76
2022/09/11 17:38:48;;;;;;;3.30;2.65;;;22.00;57.00;;;;;;5035623;28;20651;-77
2022/09/11 17:41:14;;;;;;;5.15;2.70;;;21.80;57.50;;;;;;5030004;28;20044;-74
2022/09/11 17:43:39;;;;;;;4.40;2.72;;;21.60;57.80;;;;;;5026831;28;20915;-76
2022/09/11 17:46:12;;;;;;;4.32;2.50;;;21.50;58.10;;;;;;5015718;28;20061;-77
2022/09/11 17:48:38;;;;;;;4.13;3.33;;;21.40;58.40;;;;;;5031188;28;20520;-77
2022/09/11 17:51:05;;;;;;;4.05;2.70;;;21.20;58.80;;;;;;5009526;28;20037;-76
2022/09/11 17:53:32;;;;;;;4.20;3.03;;;21.00;59.20;;;;;;5014092;28;20460;-77
2022/09/11 17:56:01;;;;;;;4.00;3.08;;;20.80;59.50;;;;;;5030749;28;20037;-75
2022/09/11 17:58:28;;;;;;;4.00;3.15;;;20.70;59.90;;;;;;5029552;28;20033;-75
2022/09/11 18:00:53;;;;;;;3.10;2.80;;;20.60;60.00;;;;;;5017828;28;20034;-76
2022/09/11 18:03:21;;;;;;;4.32;3.15;;;20.50;60.30;;;;;;5020081;28;20048;-76
2022/09/11 18:05:47;;;;;;;3.53;3.00;;;20.40;60.50;;;;;;5024457;28;20037;-76
2022/09/11 18:08:13;;;;;;;3.17;2.80;;;20.30;60.70;;;;;;5002473;28;20052;-76
2022/09/11 18:10:38;;;;;;;3.97;2.92;;;20.30;61.10;;;;;;5044197;28;20036;-76
2022/09/11 18:13:04;;;;;;;3.05;2.75;;;20.20;61.40;;;;;;5037121;28;20045;-77
2022/09/11 18:15:29;;;;;;;4.10;3.30;;;20.20;61.50;;;;;;5039272;28;20647;-77
2022/09/11 18:17:56;;;;;;;4.00;3.25;;;20.10;61.60;;;;;;5029655;28;20401;-76
2022/09/11 18:20:22;;;;;;;3.88;3.58;;;20.00;61.80;;;;;;5039492;28;20048;-75
2022/09/11 18:22:49;;;;;;;5.25;3.30;;;19.90;62.10;;;;;;5011417;28;20029;-77
2022/09/11 18:25:14;;;;;;;2.90;2.70;;;19.90;62.20;;;;;;5034487;28;20049;-77
2022/09/11 18:27:40;;;;;;;3.55;2.70;;;19.70;62.40;;;;;;5029535;28;20519;-77
2022/09/11 18:30:06;;;;;;;7.45;3.28;;;19.70;62.70;;;;;;5021157;28;20039;-77
2022/09/11 18:32:32;;;;;;;3.90;3.47;;;19.60;62.90;;;;;;5041531;28;20033;-77
2022/09/11 18:34:57;;;;;;;5.47;3.05;;;19.50;63.20;;;;;;5019287;28;20036;-77
2022/09/11 18:37:23;;;;;;;3.20;2.50;;;19.30;63.40;;;;;;5037459;28;20048;-77
2022/09/11 18:39:49;;;;;;;3.75;2.95;;;19.20;63.60;;;;;;5035468;28;20806;-76
2022/09/11 18:42:16;;;;;;;6.15;3.05;;;19.20;63.90;;;;;;5035772;28;20046;-75
2022/09/11 18:44:42;;;;;;;3.95;3.03;;;19.10;63.90;;;;;;5036497;28;20043;-76
2022/09/11 18:47:08;;;;;;;4.47;3.22;;;19.10;64.10;;;;;;5016414;28;20031;-75
2022/09/11 18:49:34;;;;;;;4.28;2.78;;;19.00;64.30;;;;;;5029256;28;20175;-76
2022/09/11 18:51:59;;;;;;;3.90;3.50;;;19.00;64.50;;;;;;5032628;28;20544;-73
2022/09/11 18:54:26;;;;;;;4.35;2.92;;;19.00;64.60;;;;;;5009084;28;20068;-73
2022/09/11 18:56:52;;;;;;;6.80;3.42;;;18.90;64.80;;;;;;5000359;28;20572;-75
2022/09/11 18:59:18;;;;;;;4.38;3.60;;;18.80;65.00;;;;;;5031341;28;20096;-75
2022/09/11 19:01:44;;;;;;;5.38;3.45;;;18.70;65.20;;;;;;4998373;28;20744;-75
2022/09/11 19:04:10;;;;;;;4.28;3.00;;;18.60;65.50;;;;;;5017396;28;20041;-75
2022/09/11 19:06:39;;;;;;;4.40;3.35;;;18.60;65.70;;;;;;5016865;28;20497;-77
2022/09/11 19:09:06;;;;;;;3.75;3.03;;;18.50;65.70;;;;;;5009349;28;20053;-77
2022/09/11 19:11:32;;;;;;;3.22;2.92;;;18.40;65.90;;;;;;5043079;28;20535;-77
2022/09/11 19:14:03;;;;;;;3.88;3.47;;;18.30;66.10;;;;;;5022891;28;20490;-74
2022/09/11 19:16:28;;;;;;;5.28;3.05;;;18.30;66.50;;;;;;5021738;28;20065;-75
2022/09/11 19:18:54;;;;;;;3.70;3.00;;;18.30;66.60;;;;;;5024252;28;20096;-75
2022/09/11 19:21:22;;;;;;;4.25;2.90;;;18.10;66.90;;;;;;5025794;28;20044;-74
2022/09/11 19:23:49;;;;;;;3.38;2.83;;;18.00;67.20;;;;;;5018084;28;20033;-75
2022/09/11 19:26:18;;;;;;;3.95;3.38;;;17.90;67.40;;;;;;5013103;28;20741;-75
2022/09/11 19:28:44;;;;;;;5.22;3.40;;;17.90;67.60;;;;;;5021661;28;20044;-74
2022/09/11 19:31:11;;;;;;;4.22;3.40;;;17.90;67.80;;;;;;5000797;28;20033;-75
2022/09/11 19:33:36;;;;;;;4.70;3.38;;;17.80;67.80;;;;;;4998764;28;20045;-77
2022/09/11 19:36:04;;;;;;;5.50;3.00;;;17.70;67.90;;;;;;5039223;28;20040;-76
2022/09/11 19:38:33;;;;;;;3.42;3.13;;;17.70;68.30;;;;;;5023058;28;20028;-75
2022/09/11 19:40:59;;;;;;;3.50;3.20;;;17.70;68.40;;;;;;5010097;28;20094;-75
2022/09/11 19:43:29;;;;;;;7.43;3.55;;;17.60;68.50;;;;;;5025427;28;20095;-75
2022/09/11 19:46:14;;;;;;;4.68;3.28;;;17.60;68.80;;;;;;4999381;28;20085;-75
2022/09/11 19:48:40;;;;;;;4.38;3.22;;;17.60;69.10;;;;;;5014002;28;20048;-76
2022/09/11 19:51:10;;;;;;;5.18;3.85;;;17.60;68.80;;;;;;5024592;28;20033;-76
2022/09/11 19:53:37;;;;;;;6.95;3.50;;;17.60;69.10;;;;;;5002241;28;20053;-75
2022/09/11 19:56:03;;;;;;;5.78;3.55;;;17.50;69.00;;;;;;5017032;28;20041;-76
2022/09/11 19:58:29;;;;;;;5.82;3.65;;;17.40;69.10;;;;;;5016104;28;20064;-75
2022/09/11 20:00:55;;;;;;;4.30;3.30;;;17.40;69.40;;;;;;5017029;28;20144;-75
2022/09/11 20:03:20;;;;;;;5.00;3.10;;;17.30;69.30;;;;;;5038707;28;20041;-75
2022/09/11 20:05:47;;;;;;;4.78;3.60;;;17.20;69.60;;;;;;5010834;28;21042;-76
2022/09/11 20:08:13;;;;;;;4.95;3.25;;;17.10;69.80;;;;;;5034536;28;20041;-76
2022/09/11 20:10:44;;;;;;;3.50;3.20;;;17.10;70.20;;;;;;5026145;28;20049;-75
2022/09/11 20:13:09;;;;;;;4.05;3.65;;;17.10;70.30;;;;;;4979396;28;20064;-75
2022/09/11 20:15:35;;;;;;;4.60;3.25;;;17.00;70.40;;;;;;5027735;28;20124;-75
2022/09/11 20:18:01;;;;;;;5.05;3.78;;;17.00;70.40;;;;;;5010088;28;20036;-76
2022/09/11 20:20:26;;;;;;;6.20;3.20;;;17.00;70.50;;;;;;5029247;28;20044;-75
2022/09/11 20:22:53;;;;;;;6.20;3.63;;;16.90;70.60;;;;;;5007312;28;20037;-77
2022/09/11 20:25:19;;;;;;;5.15;3.50;;;16.90;70.70;;;;;;5037241;28;20574;-76
2022/09/11 20:27:44;;;;;;;4.05;3.13;;;16.90;70.70;;;;;;5040508;28;20042;-75
2022/09/11 20:30:11;;;;;;;8.23;3.60;;;16.80;70.80;;;;;;5029590;28;20029;-75
2022/09/11 20:32:37;;;;;;;7.28;3.20;;;16.80;70.90;;;;;;5043599;28;20662;-76
2022/09/11 20:35:03;;;;;;;4.63;3.80;;;16.80;70.90;;;;;;5036162;28;20084;-76
2022/09/11 20:37:29;;;;;;;3.45;3.15;;;16.80;71.00;;;;;;5019030;28;20244;-76
2022/09/11 20:39:55;;;;;;;3.25;2.95;;;16.70;71.10;;;;;;5036858;28;20138;-75
2022/09/11 20:42:20;;;;;;;3.50;3.20;;;16.70;71.30;;;;;;5009958;28;20029;-75
2022/09/11 20:44:47;;;;;;;3.40;3.00;;;16.70;71.40;;;;;;5039528;28;20040;-77
2022/09/11 20:47:16;;;;;;;5.70;3.70;;;16.60;71.50;;;;;;5035830;28;20026;-77
2022/09/11 20:49:42;;;;;;;4.70;3.17;;;16.60;71.60;;;;;;5044468;28;20100;-76
2022/09/11 20:52:08;;;;;;;7.30;3.85;;;16.50;71.70;;;;;;5028332;28;20086;-77
2022/09/11 20:54:34;;;;;;;4.30;3.30;;;16.50;71.80;;;;;;5044362;28;20044;-77
2022/09/11 20:57:02;;;;;;;3.97;3.50;;;16.40;71.90;;;;;;5044356;28;20033;-75
2022/09/11 20:59:28;;;;;;;5.55;3.97;;;16.40;72.00;;;;;;5048522;28;20063;-76
2022/09/11 21:01:53;;;;;;;4.30;3.40;;;16.40;72.10;;;;;;5046905;28;20037;-76
2022/09/11 21:04:19;;;;;;;4.40;3.38;;;16.40;72.20;;;;;;5022215;28;20079;-76
2022/09/11 21:06:46;;;;;;;4.57;3.63;;;16.30;72.10;;;;;;5026315;28;20029;-77
2022/09/11 21:09:21;;;;;;;3.83;3.50;;;16.40;72.30;;;;;;5041271;28;20091;-77
2022/09/11 21:11:47;;;;;;;5.80;3.65;;;16.30;72.40;;;;;;5021147;28;20054;-77
2022/09/11 21:14:14;;;;;;;4.55;3.53;;;16.30;72.40;;;;;;5041722;28;20037;-76
2022/09/11 21:16:40;;;;;;;7.05;3.85;;;16.30;72.50;;;;;;5026290;28;20051;-77
2022/09/11 21:19:06;;;;;;;5.38;3.50;;;16.30;72.60;;;;;;5018900;28;20057;-76
2022/09/11 21:21:32;;;;;;;3.90;3.50;;;16.20;72.60;;;;;;5028838;28;20033;-76
2022/09/11 21:24:02;;;;;;;5.85;3.78;;;16.20;72.90;;;;;;4995360;28;20107;-77
2022/09/11 21:26:28;;;;;;;5.50;3.22;;;16.10;72.80;;;;;;5026199;28;20029;-75
2022/09/11 21:28:58;;;;;;;5.68;3.67;;;16.10;72.90;;;;;;5026958;28;20087;-76
2022/09/11 21:31:23;;;;;;;5.78;4.10;;;16.10;73.00;;;;;;5030145;28;20025;-75
2022/09/11 21:33:49;;;;;;;4.25;3.58;;;16.10;73.00;;;;;;5042959;28;20075;-75
2022/09/11 21:36:15;;;;;;;5.00;3.45;;;16.00;73.10;;;;;;5014836;28;20101;-75
2022/09/11 21:38:40;;;;;;;3.42;3.13;;;16.00;73.20;;;;;;5045893;28;20721;-76
2022/09/11 21:41:07;;;;;;;4.25;3.42;;;15.90;73.30;;;;;;5030539;28;20113;-75
2022/09/11 21:43:33;;;;;;;4.53;4.13;;;15.90;73.40;;;;;;5054485;28;20355;-77
2022/09/11 21:45:58;;;;;;;4.97;3.42;;;15.80;73.50;;;;;;5061377;28;20555;-75
2022/09/11 21:48:24;;;;;;;5.15;3.42;;;15.80;73.60;;;;;;5048824;28;20048;-76
2022/09/11 21:50:49;;;;;;;4.40;3.30;;;15.80;73.60;;;;;;5062281;28;20035;-75
2022/09/11 21:53:15;;;;;;;9.48;3.92;;;15.80;73.80;;;;;;5063499;28;20032;-76
2022/09/11 21:55:42;;;;;;;4.10;3.70;;;15.70;73.80;;;;;;5066386;28;22253;-77
2022/09/11 21:58:13;;;;;;;3.83;3.13;;;15.70;74.00;;;;;;5046093;28;20111;-76
2022/09/11 22:00:39;;;;;;;7.17;3.37;;;15.70;73.90;;;;;;5069345;28;20033;-77
2022/09/11 22:03:04;;;;;;;3.97;3.40;;;15.70;73.90;;;;;;5064821;28;20948;-76
2022/09/11 22:05:30;;;;;;;5.47;3.92;;;15.70;74.10;;;;;;5065400;28;20919;-76
2022/09/11 22:07:56;;;;;;;5.38;4.25;;;15.70;74.00;;;;;;5051851;28;20033;-76
2022/09/11 22:10:25;;;;;;;4.43;3.75;;;15.70;74.10;;;;;;5087460;28;20173;-76
2022/09/11 22:12:50;;;;;;;4.50;3.75;;;15.70;74.30;;;;;;5053593;28;20032;-76
2022/09/11 22:15:16;;;;;;;4.60;3.40;;;15.70;74.30;;;;;;5048365;28;20044;-76
2022/09/11 22:17:42;;;;;;;7.07;3.90;;;15.70;74.40;;;;;;5065603;28;20040;-75
2022/09/11 22:20:08;;;;;;;5.72;4.13;;;15.70;74.40;;;;;;5050295;28;20040;-75
2022/09/11 22:22:39;;;;;;;4.38;3.97;;;15.60;74.40;;;;;;5070945;28;20613;-75
2022/09/11 22:25:05;;;;;;;;;;;15.50;75.50;;;;;;5081750;28;20098;-75
2022/09/11 22:27:31;;;;;;;3.58;3.28;;;15.50;74.40;;;;;;5038827;28;20343;-75
2022/09/11 22:29:56;;;;;;;5.85;4.00;;;15.50;74.40;;;;;;5081298;28;20089;-75
2022/09/11 22:32:22;;;;;;;4.63;3.35;;;15.50;74.40;;;;;;5077669;28;20048;-75
2022/09/11 22:34:48;;;;;;;6.88;3.67;;;15.50;74.50;;;;;;5031406;28;20036;-76
2022/09/11 22:37:13;;;;;;;6.13;4.10;;;15.40;74.40;;;;;;5076946;28;20041;-75
2022/09/11 22:39:39;;;;;;;7.07;4.50;;;15.40;74.60;;;;;;5047417;28;20040;-75
2022/09/11 22:42:04;;;;;;;4.00;3.60;;;15.30;74.60;;;;;;5045993;28;20122;-75
2022/09/11 22:44:30;;;;;;;4.65;3.80;;;15.20;74.80;;;;;;5078067;28;20036;-77